Time;durP1;ratioP1;P1;durP2;ratioP2;P2;SDS_P1;SDS_P2;PMS_P1;PMS_P2;Temp;Humidity;BMP_temperature;BMP_pressure;BME280_temperature;BME280_humidity;BME280_pressure;Samples;Min_cycle;Max_cycle;Signal;HPM_P1;HPM_P2
2022/10/30 00:01:02;;;;;;;9.43;1.40;;;;;;;14.36;76.12;99858.69;5023896;28;20049;-51
2022/10/30 00:03:28;;;;;;;6.60;1.70;;;;;;;14.36;76.10;99856.06;5027989;28;20037;-46
2022/10/30 00:05:55;;;;;;;4.93;1.13;;;;;;;14.35;76.36;99859.59;5022704;28;20052;-51
2022/10/30 00:08:24;;;;;;;12.40;1.42;;;;;;;14.35;76.71;99849.16;5023773;28;20144;-47
2022/10/30 00:10:51;;;;;;;11.10;1.15;;;;;;;14.36;76.43;99843.06;5022119;28;20064;-51
2022/10/30 00:13:19;;;;;;;10.25;1.25;;;;;;;14.36;76.98;99848.25;5020683;28;20046;-49
2022/10/30 00:15:48;;;;;;;11.45;1.38;;;;;;;14.33;77.02;99852.69;5034573;28;20138;-50
2022/10/30 00:18:15;;;;;;;13.68;1.75;;;;;;;14.36;77.06;99852.63;5013309;28;20745;-53
2022/10/30 00:20:41;;;;;;;9.80;1.55;;;;;;;14.36;77.08;99850.88;5034405;28;20099;-45
2022/10/30 00:23:08;;;;;;;10.73;1.02;;;;;;;14.37;76.82;99852.59;5025935;28;20049;-48
2022/10/30 00:25:35;;;;;;;10.75;1.10;;;;;;;14.38;76.69;99843.88;5033042;28;20100;-47
2022/10/30 00:28:04;;;;;;;10.10;1.17;;;;;;;14.38;77.03;99838.69;5033476;28;20084;-50
2022/10/30 00:30:33;;;;;;;9.50;1.20;;;;;;;14.38;76.57;99843.03;5025400;28;20582;-50
2022/10/30 00:32:59;;;;;;;11.82;1.55;;;;;;;14.37;76.95;99836.97;5031469;28;20064;-53
2022/10/30 00:35:27;;;;;;;12.10;1.45;;;;;;;14.39;76.78;99844.75;5031997;28;20042;-49
2022/10/30 00:37:54;;;;;;;5.20;1.02;;;;;;;14.36;76.93;99845.66;5040562;28;20076;-51
2022/10/30 00:40:21;;;;;;;12.25;1.65;;;;;;;14.34;76.82;99847.47;5025343;28;20209;-52
2022/10/30 00:42:48;;;;;;;15.10;1.10;;;;;;;14.30;77.24;99851.03;5024059;28;20075;-45
2022/10/30 00:45:15;;;;;;;13.35;1.92;;;;;;;14.32;76.61;99859.63;5033324;28;20045;-48
2022/10/30 00:47:49;;;;;;;11.15;1.55;;;;;;;14.25;77.42;99858.06;5032012;28;20049;-51
2022/10/30 00:50:25;;;;;;;9.57;1.23;;;;;;;14.20;77.63;99855.56;5019889;28;20130;-53
2022/10/30 00:53:17;;;;;;;12.98;1.17;;;;;;;14.11;77.13;99861.81;5031394;28;20041;-50
2022/10/30 00:55:52;;;;;;;7.38;1.33;;;;;;;14.05;77.47;99848.91;5028801;28;20061;-55
2022/10/30 00:58:25;;;;;;;6.95;1.00;;;;;;;14.04;77.69;99849.81;5023955;28;20053;-45
2022/10/30 01:00:56;;;;;;;8.98;1.42;;;;;;;14.07;77.29;99841.94;5028257;28;20131;-49
2022/10/30 01:03:25;;;;;;;10.30;1.40;;;;;;;14.05;78.24;99835.88;5017327;28;20045;-46
2022/10/30 01:05:56;;;;;;;8.02;1.08;;;;;;;14.00;77.94;99838.59;5023690;28;20161;-46
2022/10/30 01:08:23;;;;;;;3.97;1.45;;;;;;;13.98;77.84;99837.78;5037160;28;20214;-51
2022/10/30 01:10:50;;;;;;;7.82;1.10;;;;;;;13.96;78.23;99843.91;5028991;28;20059;-49
2022/10/30 01:13:19;;;;;;;11.82;1.85;;;;;;;13.96;78.19;99836.09;5021527;28;20501;-46
2022/10/30 01:29:55;;;;;;;9.68;1.90;;;;;;;13.84;78.99;99843.25;5072854;27;20406;-54
2022/10/30 01:40:22;;;;;;;11.23;1.65;;;;;;;13.76;78.60;99842.56;5082278;27;20407;-51
2022/10/30 01:58:53;;;;;;;12.55;2.72;;;;;;;13.69;78.72;99833.13;5054790;28;20404;-47
2022/10/30 02:01:22;;;;;;;9.00;2.55;;;;;;;13.66;78.78;99831.47;5039009;28;20071;-55
2022/10/30 02:03:50;;;;;;;14.48;2.65;;;;;;;13.67;78.96;99829.69;4995826;28;20506;-49
2022/10/30 02:06:16;;;;;;;9.07;2.83;;;;;;;13.64;79.22;99819.38;4998702;28;20046;-51
2022/10/30 02:08:43;;;;;;;15.95;1.23;;;;;;;13.61;79.26;99833.28;4996831;28;22042;-52
2022/10/30 02:11:10;;;;;;;16.05;1.08;;;;;;;13.61;78.96;99831.53;4996457;28;20865;-45
2022/10/30 02:13:37;;;;;;;10.77;3.25;;;;;;;13.61;79.44;99841.06;4996971;28;20050;-53
2022/10/30 02:16:04;;;;;;;10.73;2.92;;;;;;;13.58;79.24;99835.97;4992314;28;20142;-53
2022/10/30 02:18:31;;;;;;;11.40;2.40;;;;;;;13.56;79.49;99833.38;4997198;28;20053;-50
2022/10/30 02:20:58;;;;;;;9.98;2.80;;;;;;;13.58;79.63;99828.97;4999995;28;20510;-52
2022/10/30 02:23:24;;;;;;;8.63;2.58;;;;;;;13.60;78.77;99831.56;5000339;28;20064;-48
2022/10/30 02:25:51;;;;;;;11.65;2.83;;;;;;;13.59;79.42;99837.66;4993772;28;20083;-45
2022/10/30 02:28:17;;;;;;;9.48;3.00;;;;;;;13.55;79.13;99829.06;4994533;28;20047;-52
2022/10/30 02:30:44;;;;;;;9.40;2.33;;;;;;;13.53;78.99;99828.22;4998445;28;20150;-49
2022/10/30 02:33:11;;;;;;;13.35;3.10;;;;;;;13.52;79.07;99820.44;4997553;28;20502;-49
2022/10/30 02:35:37;;;;;;;8.75;2.78;;;;;;;13.50;79.08;99812.66;4998734;28;20070;-48
2022/10/30 02:38:04;;;;;;;16.48;1.75;;;;;;;13.49;78.67;99823.97;5002228;28;20599;-50
2022/10/30 02:40:31;;;;;;;19.70;2.45;;;;;;;13.49;79.08;99826.56;4994020;28;20046;-54
2022/10/30 02:42:58;;;;;;;10.00;2.08;;;;;;;13.43;79.25;99831.84;4997546;28;20053;-44
2022/10/30 02:45:25;;;;;;;12.13;3.00;;;;;;;13.45;78.95;99814.47;4994553;28;20082;-52
2022/10/30 02:47:51;;;;;;;7.85;2.55;;;;;;;13.43;78.79;99827.50;4995015;28;20052;-49
2022/10/30 02:50:18;;;;;;;6.72;2.78;;;;;;;13.41;79.62;99829.25;4996391;28;20042;-46
2022/10/30 02:52:45;;;;;;;9.13;3.13;;;;;;;13.41;79.31;99823.22;4996825;28;20141;-48
2022/10/30 02:55:11;;;;;;;13.80;2.70;;;;;;;13.37;79.29;99823.28;4996033;28;20053;-51
2022/10/30 02:57:38;;;;;;;11.18;1.90;;;;;;;13.38;78.88;99813.72;4998115;28;20052;-56
2022/10/30 03:00:05;;;;;;;12.23;2.63;;;;;;;13.36;79.90;99811.16;4996278;28;20140;-47
2022/10/30 03:02:32;;;;;;;10.45;2.22;;;;;;;13.40;79.30;99811.09;4990932;28;20133;-51
2022/10/30 03:04:58;;;;;;;15.00;3.28;;;;;;;13.39;79.21;99811.97;4992993;28;20081;-50
2022/10/30 03:07:25;;;;;;;9.32;2.55;;;;;;;13.37;79.24;99807.66;4993520;28;20137;-50
2022/10/30 03:09:53;;;;;;;5.07;2.55;;;;;;;13.29;79.87;99808.69;4981406;28;20133;-49
2022/10/30 03:12:20;;;;;;;7.80;0.93;;;;;;;13.35;79.93;99808.59;4977383;28;20987;-50
2022/10/30 03:14:47;;;;;;;16.15;2.63;;;;;;;13.31;79.58;99794.75;4976606;28;20046;-54
2022/10/30 03:17:14;;;;;;;13.73;3.17;;;;;;;13.31;79.51;99802.56;4978645;28;20137;-50
2022/10/30 03:19:40;;;;;;;14.70;3.58;;;;;;;13.30;79.08;99807.78;4983294;28;20078;-48
2022/10/30 03:22:07;;;;;;;15.48;2.75;;;;;;;13.25;79.64;99802.69;4980992;28;20145;-53
2022/10/30 03:24:33;;;;;;;11.40;3.22;;;;;;;13.26;79.48;99788.78;4979734;28;20066;-49
2022/10/30 03:27:00;;;;;;;15.77;3.08;;;;;;;13.20;79.48;99788.88;4982557;28;20129;-55
2022/10/30 03:29:27;;;;;;;15.75;3.38;;;;;;;13.19;79.95;99792.38;4980993;28;20514;-51
2022/10/30 03:31:54;;;;;;;11.95;2.63;;;;;;;13.17;80.21;99789.81;4981603;28;20057;-54
2022/10/30 03:34:20;;;;;;;11.05;2.53;;;;;;;13.13;79.83;99782.94;4982044;28;20043;-56
2022/10/30 03:36:47;;;;;;;9.10;2.38;;;;;;;13.13;80.22;99787.31;4982802;28;20128;-54
2022/10/30 03:39:14;;;;;;;11.25;2.00;;;;;;;13.11;79.55;99788.16;4986090;28;20152;-54
2022/10/30 03:41:42;;;;;;;13.82;2.90;;;;;;;13.12;80.21;99802.03;4986291;28;20510;-53
2022/10/30 03:44:08;;;;;;;8.15;2.30;;;;;;;13.14;80.29;99799.41;4984053;28;20042;-47
2022/10/30 03:46:35;;;;;;;9.80;3.55;;;;;;;13.13;79.56;99797.72;4982207;28;20514;-53
2022/10/30 03:49:02;;;;;;;10.98;2.88;;;;;;;13.11;80.14;99801.16;4985132;28;20125;-51
2022/10/30 03:51:28;;;;;;;10.63;3.10;;;;;;;13.10;79.72;99791.66;4982654;28;20050;-54
2022/10/30 03:53:55;;;;;;;18.50;2.70;;;;;;;13.11;80.26;99806.38;4981170;28;20196;-48
2022/10/30 03:56:22;;;;;;;16.15;2.65;;;;;;;13.08;80.82;99809.00;4986342;28;20467;-50
2022/10/30 03:58:48;;;;;;;10.02;3.53;;;;;;;13.07;79.90;99799.50;4983975;28;20085;-53
2022/10/30 04:01:15;;;;;;;10.93;2.50;;;;;;;13.09;79.98;99805.56;4983422;28;20082;-51
2022/10/30 04:03:41;;;;;;;11.52;2.65;;;;;;;13.08;80.10;99810.78;4984829;28;20054;-46
2022/10/30 04:06:08;;;;;;;16.17;2.80;;;;;;;13.09;80.31;99797.75;4981428;28;20473;-50
2022/10/30 04:08:35;;;;;;;11.77;2.88;;;;;;;13.07;79.69;99786.50;4983507;28;20134;-48
2022/10/30 04:11:02;;;;;;;12.52;3.08;;;;;;;13.06;79.65;99787.41;4979760;28;20406;-52
2022/10/30 04:13:28;;;;;;;13.77;3.10;;;;;;;13.06;80.08;99796.94;4975293;28;20682;-52
2022/10/30 04:15:55;;;;;;;11.88;2.78;;;;;;;13.03;79.45;99792.66;4980832;28;20145;-54
2022/10/30 04:18:25;;;;;;;12.55;2.63;;;;;;;13.01;80.14;99794.44;4977918;28;20046;-50
2022/10/30 04:20:52;;;;;;;9.50;2.15;;;;;;;12.98;80.25;99795.31;4981863;28;20058;-47
2022/10/30 04:23:20;;;;;;;10.13;2.58;;;;;;;12.99;79.67;99801.38;4982434;28;20137;-48
2022/10/30 04:25:47;;;;;;;10.32;2.50;;;;;;;12.95;79.35;99817.91;4984009;28;20050;-47
2022/10/30 04:28:14;;;;;;;11.05;2.55;;;;;;;12.94;80.16;99824.00;4981923;28;20050;-52
2022/10/30 04:30:40;;;;;;;14.45;3.03;;;;;;;12.92;80.42;99825.75;4979494;28;20082;-49
2022/10/30 04:33:10;;;;;;;6.47;1.85;;;;;;;12.92;79.99;99820.56;4985248;28;20736;-53
2022/10/30 04:35:38;;;;;;;11.88;3.17;;;;;;;12.92;80.72;99805.84;4984095;28;20054;-49
2022/10/30 04:38:07;;;;;;;26.25;3.67;;;;;;;12.94;79.93;99793.66;4984938;28;20129;-50
2022/10/30 04:40:36;;;;;;;14.25;2.58;;;;;;;12.96;80.00;99791.03;4979306;28;20495;-49
2022/10/30 04:43:04;;;;;;;14.98;2.38;;;;;;;12.96;80.53;99785.84;4982053;28;20137;-53
2022/10/30 04:45:31;;;;;;;9.85;2.58;;;;;;;12.96;80.72;99776.31;4980970;28;20055;-55
2022/10/30 04:48:00;;;;;;;12.68;3.05;;;;;;;12.98;80.02;99779.72;4978210;28;20126;-51
2022/10/30 04:50:27;;;;;;;15.23;2.30;;;;;;;12.98;80.39;99778.88;4985024;28;20061;-47
2022/10/30 04:52:59;;;;;;;9.75;2.53;;;;;;;13.00;81.04;99774.50;4978555;28;20136;-51
2022/10/30 04:55:26;;;;;;;10.02;4.15;;;;;;;12.96;81.45;99785.84;4983754;28;20149;-43
2022/10/30 04:57:56;;;;;;;12.45;3.40;;;;;;;13.01;81.65;99776.22;4981507;28;20714;-47
2022/10/30 05:00:23;;;;;;;;;;;;;;;12.89;81.31;99773.81;4982740;28;20054;-56
2022/10/30 05:02:50;;;;;;;23.73;3.08;;;;;;;12.93;81.48;99778.09;4984485;28;20020;-49
2022/10/30 05:05:16;;;;;;;11.07;2.65;;;;;;;12.99;81.15;99780.59;4984931;28;20134;-46
2022/10/30 05:07:43;;;;;;;11.70;3.00;;;;;;;12.99;81.72;99791.00;4980944;28;20053;-49
2022/10/30 05:10:13;;;;;;;6.97;2.20;;;;;;;13.01;81.29;99793.56;4983096;28;20050;-52
2022/10/30 05:12:42;;;;;;;14.13;2.80;;;;;;;13.03;80.52;99784.84;4976221;28;20082;-48
2022/10/30 05:15:09;;;;;;;11.95;2.65;;;;;;;13.00;81.80;99782.28;4980362;28;20081;-46
2022/10/30 05:17:36;;;;;;;8.98;2.83;;;;;;;13.00;80.80;99766.69;4982304;28;20135;-47
2022/10/30 05:20:04;;;;;;;9.77;2.45;;;;;;;12.99;81.23;99765.00;4978958;28;20137;-50
2022/10/30 05:22:31;;;;;;;10.23;2.78;;;;;;;13.00;81.61;99758.91;4973706;28;20085;-49
2022/10/30 05:24:58;;;;;;;12.80;3.28;;;;;;;12.98;81.30;99760.69;4977502;28;20049;-46
2022/10/30 05:27:24;;;;;;;14.15;3.53;;;;;;;13.00;81.03;99779.69;4977354;28;20052;-49
2022/10/30 05:29:51;;;;;;;11.70;2.72;;;;;;;13.00;81.58;99794.47;4981277;28;20133;-53
2022/10/30 05:32:17;;;;;;;11.90;2.78;;;;;;;13.01;82.04;99784.03;4981097;28;20042;-47
2022/10/30 05:34:44;;;;;;;14.85;3.13;;;;;;;13.02;81.52;99780.53;4985473;28;20125;-51
2022/10/30 05:37:11;;;;;;;9.00;2.30;;;;;;;13.03;80.99;99782.25;4985135;28;20050;-50
2022/10/30 05:39:37;;;;;;;8.10;2.67;;;;;;;13.00;81.73;99792.69;4977778;28;20048;-50
2022/10/30 05:42:04;;;;;;;16.17;2.78;;;;;;;13.03;80.51;99790.03;4977438;28;20171;-51
2022/10/30 05:44:35;;;;;;;15.27;2.92;;;;;;;13.00;81.18;99787.50;4977497;28;20081;-50
2022/10/30 05:47:21;;;;;;;6.18;2.10;;;;;;;13.03;81.99;99777.06;4974556;28;20053;-46
2022/10/30 05:49:48;;;;;;;9.50;2.78;;;;;;;13.02;81.71;99779.66;4976445;28;20069;-49
2022/10/30 05:52:14;;;;;;;11.55;3.08;;;;;;;13.04;81.26;99773.56;4976600;28;20104;-48
2022/10/30 05:54:41;;;;;;;11.40;2.22;;;;;;;13.04;81.91;99775.31;4959151;28;20128;-50
2022/10/30 05:57:07;;;;;;;18.08;2.90;;;;;;;13.04;81.35;99781.34;4970900;28;20137;-49
2022/10/30 05:59:34;;;;;;;12.70;1.40;;;;;;;13.02;82.15;99783.13;4974461;28;20537;-52
2022/10/30 06:02:01;;;;;;;14.07;3.58;;;;;;;13.02;82.29;99780.53;4973760;28;20231;-48
2022/10/30 06:04:27;;;;;;;15.20;3.42;;;;;;;13.02;82.50;99770.16;4974474;28;20137;-52
2022/10/30 06:06:54;;;;;;;9.25;2.63;;;;;;;13.04;81.79;99768.34;4974351;28;20146;-52
2022/10/30 06:09:21;;;;;;;12.98;2.67;;;;;;;13.05;82.40;99775.28;4976383;28;20042;-50
2022/10/30 06:11:47;;;;;;;16.50;2.15;;;;;;;13.09;81.64;99784.75;4975463;28;20130;-53
2022/10/30 06:14:14;;;;;;;15.32;3.30;;;;;;;13.11;81.56;99795.97;4980554;28;20074;-49
2022/10/30 06:16:40;;;;;;;9.93;2.53;;;;;;;13.14;82.47;99794.22;4979194;28;20384;-52
2022/10/30 06:19:07;;;;;;;13.38;2.90;;;;;;;13.15;82.24;99785.53;4984053;28;20335;-48
2022/10/30 06:21:36;;;;;;;14.77;2.83;;;;;;;13.13;81.71;99789.91;4977317;28;20105;-50
2022/10/30 06:24:03;;;;;;;11.70;1.75;;;;;;;13.20;82.39;99799.28;4981005;28;20461;-57
2022/10/30 06:26:29;;;;;;;12.55;2.13;;;;;;;13.19;82.54;99787.19;4980699;28;20042;-53
2022/10/30 06:28:56;;;;;;;10.30;3.13;;;;;;;13.20;82.30;99789.75;4981436;28;20137;-53
2022/10/30 06:31:22;;;;;;;8.00;2.63;;;;;;;13.24;82.13;99790.53;4980334;28;20141;-50
2022/10/30 06:33:49;;;;;;;10.90;3.17;;;;;;;13.25;81.43;99792.28;4981665;28;20406;-54
2022/10/30 06:36:16;;;;;;;10.90;2.65;;;;;;;13.24;82.62;99795.75;4981917;28;20145;-56
2022/10/30 06:38:43;;;;;;;12.43;2.80;;;;;;;13.28;82.46;99797.44;4983067;28;20133;-52
2022/10/30 06:41:09;;;;;;;15.05;3.10;;;;;;;13.30;81.56;99802.59;4978959;28;20136;-52
2022/10/30 06:43:36;;;;;;;8.20;2.50;;;;;;;13.33;81.93;99802.53;4982029;28;20078;-55
2022/10/30 06:46:03;;;;;;;10.68;2.70;;;;;;;13.30;82.55;99795.66;4987034;28;20546;-53
2022/10/30 06:48:30;;;;;;;15.57;2.72;;;;;;;13.37;81.69;99802.47;4986950;28;20038;-46
2022/10/30 06:50:59;;;;;;;19.05;3.17;;;;;;;13.41;81.42;99807.63;4988685;28;20161;-51
2022/10/30 06:53:26;;;;;;;13.32;2.38;;;;;;;13.43;81.56;99800.63;4985262;28;20140;-53
2022/10/30 06:55:58;;;;;;;18.55;4.07;;;;;;;13.46;81.95;99795.38;4983953;28;20070;-47
2022/10/30 06:58:26;;;;;;;14.38;2.55;;;;;;;13.47;82.01;99797.06;4979747;28;20066;-48
2022/10/30 07:00:53;;;;;;;9.88;2.03;;;;;;;13.48;82.23;99799.69;4981767;28;20129;-52
2022/10/30 07:03:20;;;;;;;17.20;3.08;;;;;;;13.53;82.07;99797.00;4985564;28;20054;-48
2022/10/30 07:05:47;;;;;;;13.23;2.47;;;;;;;13.53;82.09;99797.00;4984934;28;20052;-49
2022/10/30 07:08:14;;;;;;;16.85;2.85;;;;;;;13.55;82.05;99795.25;4982473;28;20053;-47
2022/10/30 07:10:40;;;;;;;12.48;2.72;;;;;;;13.54;81.80;99796.09;4985835;28;20125;-48
2022/10/30 07:13:08;;;;;;;12.57;3.17;;;;;;;13.56;81.92;99796.94;4984772;28;20054;-52
2022/10/30 07:15:34;;;;;;;12.40;2.88;;;;;;;13.50;82.03;99791.84;4983011;28;20232;-52
2022/10/30 07:18:02;;;;;;;11.63;4.00;;;;;;;13.57;82.49;99788.25;4983824;28;20046;-47
2022/10/30 07:20:32;;;;;;;20.23;3.38;;;;;;;13.57;82.14;99783.03;4982012;28;20757;-50
2022/10/30 07:22:59;;;;;;;11.80;2.90;;;;;;;13.59;81.49;99780.41;4985124;28;20053;-49
2022/10/30 07:25:26;;;;;;;12.85;3.03;;;;;;;13.57;82.31;99769.16;4982333;28;20092;-47
2022/10/30 07:27:54;;;;;;;12.35;3.30;;;;;;;13.61;81.97;99774.28;4982852;28;20131;-50
2022/10/30 07:30:24;;;;;;;12.18;4.18;;;;;;;13.66;81.07;99768.13;4984600;28;20050;-49
2022/10/30 07:32:57;;;;;;;10.80;2.78;;;;;;;13.65;82.01;99776.84;4979634;28;20165;-46
2022/10/30 07:35:24;;;;;;;13.77;2.78;;;;;;;13.65;81.54;99777.69;4981888;28;20050;-48
2022/10/30 07:37:51;;;;;;;10.02;3.25;;;;;;;13.65;81.76;99775.09;4985073;28;20046;-48
2022/10/30 07:40:20;;;;;;;12.65;2.78;;;;;;;13.68;81.14;99774.19;4985541;28;20053;-52
2022/10/30 07:42:47;;;;;;;7.40;2.75;;;;;;;13.67;81.37;99788.91;4982430;28;20085;-55
2022/10/30 07:45:14;;;;;;;16.13;3.17;;;;;;;13.68;81.53;99808.00;4978725;28;20050;-54
2022/10/30 07:47:42;;;;;;;9.23;3.63;;;;;;;13.71;81.42;99805.34;4985576;28;20073;-51
2022/10/30 07:50:10;;;;;;;10.07;2.28;;;;;;;13.75;81.88;99822.63;4982125;28;20065;-53
2022/10/30 07:52:36;;;;;;;10.45;2.65;;;;;;;13.77;81.52;99815.63;4974808;28;20589;-51
2022/10/30 07:55:04;;;;;;;12.85;2.67;;;;;;;13.81;81.88;99801.66;4978146;28;20062;-50
2022/10/30 07:57:37;;;;;;;12.60;2.55;;;;;;;13.82;81.78;99786.91;4978371;28;20086;-52
2022/10/30 08:00:06;;;;;;;15.90;3.00;;;;;;;13.83;81.81;99792.09;4977521;28;20503;-53
2022/10/30 08:02:33;;;;;;;9.38;2.83;;;;;;;13.82;81.62;99792.94;4980722;28;20141;-46
2022/10/30 08:05:00;;;;;;;12.13;2.75;;;;;;;13.88;81.55;99782.44;4978664;28;20120;-50
2022/10/30 08:07:30;;;;;;;8.73;2.83;;;;;;;13.88;81.08;99782.44;4980648;28;20136;-52
2022/10/30 08:09:57;;;;;;;11.48;2.55;;;;;;;13.87;81.75;99785.94;4979803;28;20169;-53
2022/10/30 08:12:25;;;;;;;13.40;2.50;;;;;;;13.84;81.53;99779.91;4977707;28;20084;-49
2022/10/30 08:14:52;;;;;;;19.20;3.70;;;;;;;13.91;81.43;99775.47;4977696;28;20134;-49
2022/10/30 08:17:20;;;;;;;9.93;2.78;;;;;;;13.93;81.50;99774.53;4979086;28;20050;-51
2022/10/30 08:19:46;;;;;;;9.15;2.28;;;;;;;13.91;80.97;99763.28;4981248;28;20070;-50
2022/10/30 08:22:13;;;;;;;15.45;2.63;;;;;;;13.91;81.41;99768.47;4978975;28;20173;-46
2022/10/30 08:24:40;;;;;;;13.15;3.72;;;;;;;13.91;81.33;99765.03;4977287;28;20160;-49
2022/10/30 08:27:08;;;;;;;14.75;3.22;;;;;;;13.98;81.08;99771.81;4975738;28;20446;-50
2022/10/30 08:29:35;;;;;;;11.18;2.53;;;;;;;13.96;81.53;99763.19;4978680;28;20126;-54
2022/10/30 08:32:02;;;;;;;14.27;3.28;;;;;;;13.98;81.55;99766.59;4977845;28;20052;-51
2022/10/30 08:34:31;;;;;;;12.63;2.67;;;;;;;14.01;80.72;99762.19;4978739;28;20140;-52
2022/10/30 08:36:58;;;;;;;13.38;3.15;;;;;;;13.99;81.09;99778.75;4977719;28;20137;-52
2022/10/30 08:39:25;;;;;;;11.82;2.47;;;;;;;14.03;81.36;99769.13;4981534;28;20050;-49
2022/10/30 08:41:52;;;;;;;9.45;3.30;;;;;;;14.06;81.14;99769.91;4979756;28;20060;-51
2022/10/30 08:44:19;;;;;;;11.57;3.38;;;;;;;14.07;80.93;99776.84;4978692;28;20054;-50
2022/10/30 08:46:45;;;;;;;9.05;2.65;;;;;;;14.06;81.19;99777.72;4979688;28;20149;-46
2022/10/30 08:49:12;;;;;;;9.02;3.42;;;;;;;14.05;81.40;99770.78;4976353;28;20775;-53
2022/10/30 08:51:38;;;;;;;10.85;3.55;;;;;;;14.09;80.78;99780.25;4976144;28;20049;-54
2022/10/30 08:54:05;;;;;;;8.75;2.80;;;;;;;14.08;81.20;99778.53;4978339;28;20042;-52
2022/10/30 08:56:32;;;;;;;11.00;2.28;;;;;;;14.10;80.99;99784.59;4973722;28;20054;-51
2022/10/30 08:58:58;;;;;;;11.15;2.65;;;;;;;14.13;81.12;99781.94;4973974;28;20080;-54
2022/10/30 09:01:25;;;;;;;7.63;2.67;;;;;;;14.18;80.78;99783.56;4977279;28;20472;-47
2022/10/30 09:03:51;;;;;;;11.20;3.08;;;;;;;14.22;80.67;99790.41;4979143;28;20108;-49
2022/10/30 09:06:18;;;;;;;11.93;1.65;;;;;;;14.20;80.95;99797.41;4984345;28;20513;-52
2022/10/30 09:08:45;;;;;;;8.07;2.13;;;;;;;14.18;81.20;99800.03;4982058;28;20066;-49
2022/10/30 09:11:12;;;;;;;8.38;2.70;;;;;;;14.19;81.01;99795.69;4983353;28;20498;-47
2022/10/30 09:13:38;;;;;;;8.25;3.45;;;;;;;14.25;80.99;99800.75;4983063;28;20050;-48
2022/10/30 09:16:05;;;;;;;8.38;2.72;;;;;;;14.28;80.90;99800.69;4979803;28;20149;-47
2022/10/30 09:18:32;;;;;;;13.85;3.63;;;;;;;14.30;81.00;99787.63;4975241;28;20057;-51
2022/10/30 09:20:58;;;;;;;9.52;2.63;;;;;;;14.32;80.85;99781.50;4979231;28;20138;-52
2022/10/30 09:23:30;;;;;;;10.57;3.38;;;;;;;14.24;80.97;99773.00;4980274;28;20047;-49
2022/10/30 09:25:57;;;;;;;12.10;2.63;;;;;;;14.29;80.19;99773.78;4983809;28;20142;-55
2022/10/30 09:28:23;;;;;;;9.95;3.22;;;;;;;14.36;80.34;99788.34;4982268;28;20167;-50
2022/10/30 09:30:55;;;;;;;9.65;1.83;;;;;;;14.38;80.48;99786.56;4979512;28;20084;-51
2022/10/30 09:33:22;;;;;;;13.02;2.72;;;;;;;14.42;80.52;99791.72;4980705;28;20050;-49
2022/10/30 09:35:49;;;;;;;10.35;2.95;;;;;;;14.45;80.63;99781.22;4976501;28;20581;-50
2022/10/30 09:38:16;;;;;;;16.73;3.63;;;;;;;14.48;79.91;99775.94;4979099;28;20141;-53
2022/10/30 09:55:24;;;;;;;8.75;4.05;;;;;;;14.84;79.33;99795.97;5051360;28;20409;-48
2022/10/30 10:00:49;;;;;;;9.60;1.00;;;;;;;14.97;78.71;99788.72;5043693;28;20395;-47
2022/10/30 10:06:01;;;;;;;6.55;1.10;;;;;;;15.02;78.16;99797.25;5045782;27;20416;-49
2022/10/30 10:08:39;;;;;;;8.32;1.33;;;;;;;15.02;78.11;99798.13;5021139;28;20136;-50
2022/10/30 10:11:21;;;;;;;6.78;0.55;;;;;;;15.01;77.61;99801.63;5010626;28;20136;-51
2022/10/30 10:13:55;;;;;;;9.57;1.55;;;;;;;15.06;77.94;99809.31;5009528;28;20074;-51
2022/10/30 10:16:28;;;;;;;7.35;1.17;;;;;;;15.01;78.13;99811.22;5011016;28;20061;-47
2022/10/30 10:21:36;;;;;;;8.63;2.05;;;;;;;15.09;77.70;99804.03;4998943;27;21262;-49
2022/10/30 10:24:03;;;;;;;8.60;2.58;;;;;;;15.09;77.86;99809.25;4984808;28;20052;-52
2022/10/30 10:43:38;;;;;;;5.80;1.10;;;;;;;15.35;76.54;99793.81;5037199;28;20412;-49
2022/10/30 10:51:56;;;;;;;7.60;2.40;;;;;;;15.42;76.27;99775.34;5052056;28;20391;-56
2022/10/30 10:54:32;;;;;;;8.63;2.53;;;;;;;15.34;76.61;99782.53;5003008;28;20589;-54
2022/10/30 10:56:59;;;;;;;7.47;2.33;;;;;;;15.42;76.43;99770.13;5000337;28;20054;-47
2022/10/30 10:59:33;;;;;;;6.53;2.67;;;;;;;15.41;76.40;99763.19;4982991;28;20075;-47
2022/10/30 11:04:48;;;;;;;6.72;0.90;;;;;;;15.50;75.61;99761.25;5030309;28;20394;-49
2022/10/30 11:09:57;;;;;;;13.98;1.80;;;;;;;15.79;74.80;99767.38;5017569;27;20416;-45
2022/10/30 11:12:27;;;;;;;6.78;2.17;;;;;;;15.61;75.31;99764.41;5014831;28;20050;-51
2022/10/30 11:15:08;;;;;;;12.30;2.38;;;;;;;15.61;75.43;99761.81;5013959;28;20049;-48
2022/10/30 11:17:41;;;;;;;12.18;3.25;;;;;;;15.62;75.14;99770.47;5013581;28;20170;-50
2022/10/30 11:20:29;;;;;;;10.13;2.90;;;;;;;15.55;74.94;99775.00;5015149;28;20050;-47
2022/10/30 11:23:00;;;;;;;9.30;1.10;;;;;;;15.60;75.36;99788.78;5016233;28;20140;-53
2022/10/30 11:25:34;;;;;;;7.28;2.97;;;;;;;15.60;75.23;99782.72;5020311;28;20045;-45
2022/10/30 11:28:03;;;;;;;7.78;2.45;;;;;;;15.61;75.47;99776.59;5021512;28;20042;-52
2022/10/30 11:30:30;;;;;;;9.13;2.92;;;;;;;15.62;75.70;99776.56;5018220;28;20088;-54
2022/10/30 11:32:58;;;;;;;3.85;2.17;;;;;;;15.55;74.81;99778.50;5021462;28;20049;-50
2022/10/30 11:35:25;;;;;;;10.55;2.95;;;;;;;15.57;75.04;99773.19;5019669;28;20499;-45
2022/10/30 11:38:12;;;;;;;8.32;2.03;;;;;;;15.56;74.93;99776.72;5019839;28;20128;-46
2022/10/30 11:40:47;;;;;;;13.32;2.72;;;;;;;15.56;74.60;99776.72;5017440;28;20046;-46
2022/10/30 11:43:21;;;;;;;7.85;2.40;;;;;;;15.59;75.18;99768.81;5019653;28;20057;-49
2022/10/30 11:45:49;;;;;;;10.30;3.13;;;;;;;15.59;75.14;99766.19;5019633;28;20061;-46
2022/10/30 11:48:24;;;;;;;5.03;1.88;;;;;;;15.63;74.66;99762.59;5016862;28;20061;-49
2022/10/30 11:50:58;;;;;;;9.70;1.27;;;;;;;15.66;74.41;99767.75;5017794;28;20470;-48
2022/10/30 11:53:35;;;;;;;10.02;2.80;;;;;;;15.60;75.05;99767.91;5016246;28;20044;-46
2022/10/30 11:56:09;;;;;;;9.35;2.17;;;;;;;15.61;74.82;99759.19;5016113;28;20050;-50
2022/10/30 11:58:41;;;;;;;8.95;3.72;;;;;;;15.58;74.66;99771.47;5017756;28;20146;-51
2022/10/30 12:01:33;;;;;;;9.00;3.15;;;;;;;15.60;73.92;99767.06;5018091;28;20042;-45
2022/10/30 12:04:22;;;;;;;8.55;2.75;;;;;;;15.63;74.23;99772.16;5010579;28;20136;-45
2022/10/30 12:07:06;;;;;;;6.18;2.78;;;;;;;15.62;74.38;99760.91;5020876;28;20053;-53
2022/10/30 12:09:42;;;;;;;7.15;1.83;;;;;;;15.69;73.80;99761.56;5015954;28;20054;-46
2022/10/30 12:12:11;;;;;;;10.50;2.45;;;;;;;15.71;74.34;99751.09;5012160;28;20057;-49
2022/10/30 12:14:38;;;;;;;5.80;2.75;;;;;;;15.70;74.51;99752.81;5016613;28;20137;-48
2022/10/30 12:17:05;;;;;;;8.68;2.45;;;;;;;15.72;74.70;99750.19;5018344;28;20077;-50
2022/10/30 12:19:31;;;;;;;11.80;3.33;;;;;;;15.71;74.01;99748.47;5009751;28;20045;-46
2022/10/30 12:22:00;;;;;;;8.10;2.33;;;;;;;15.71;73.71;99756.31;5001906;28;20502;-49
2022/10/30 12:24:30;;;;;;;7.85;2.50;;;;;;;15.72;74.18;99755.41;5002799;28;20072;-47
2022/10/30 12:27:04;;;;;;;7.13;2.05;;;;;;;15.66;73.77;99752.06;4998881;28;20088;-50
2022/10/30 12:32:52;;;;;;;7.05;1.08;;;;;;;15.70;73.66;99749.38;5088909;27;20133;-45
2022/10/30 12:38:23;;;;;;;6.78;1.35;;;;;;;15.66;73.65;99740.75;5037350;28;21152;-53
2022/10/30 12:41:02;;;;;;;4.65;0.80;;;;;;;15.67;73.43;99732.91;4993763;28;20137;-54
2022/10/30 12:43:33;;;;;;;10.40;1.42;;;;;;;15.70;73.63;99731.09;4992413;28;20046;-48
2022/10/30 12:49:08;;;;;;;4.43;0.63;;;;;;;15.80;73.96;99727.31;5025845;28;20409;-48
2022/10/30 12:51:42;;;;;;;5.28;0.82;;;;;;;15.88;72.90;99740.97;5007508;28;20112;-51
2022/10/30 12:56:55;;;;;;;10.27;2.42;;;;;;;15.88;73.27;99742.75;5033419;27;20398;-46
2022/10/30 12:59:54;;;;;;;6.97;2.20;;;;;;;15.93;73.60;99733.03;5018537;28;20141;-52
2022/10/30 13:02:39;;;;;;;10.60;1.85;;;;;;;15.91;73.45;99714.78;5018107;28;20141;-43
2022/10/30 13:16:01;;;;;;;7.28;0.90;;;;;;;16.25;72.61;99730.38;5009576;27;20444;-51
2022/10/30 13:18:31;;;;;;;5.72;0.73;;;;;;;16.23;72.61;99724.31;4998051;28;20534;-54
2022/10/30 13:21:19;;;;;;;;;;;;;;;15.99;72.67;99738.09;4999282;28;20066;-48
2022/10/30 13:26:49;;;;;;;6.85;1.40;;;;;;;15.87;74.07;99748.91;5042393;28;20382;-49
2022/10/30 13:29:48;;;;;;;2.13;0.60;;;;;;;15.71;74.24;99758.91;5028073;28;20088;-50
2022/10/30 13:40:45;;;;;;;6.82;1.52;;;;;;;15.54;74.72;99747.22;5052863;27;20397;-46